createdAt,value
2018-02-14T00:02:24.837Z,101108.01
2018-02-14T00:04:54.645Z,101103.53
2018-02-14T00:07:24.448Z,101101.03
2018-02-14T00:09:54.313Z,101116.68
2018-02-14T00:12:24.215Z,101116.53
2018-02-14T00:14:54.625Z,101120.63
2018-02-14T00:17:24.782Z,101122.30
2018-02-14T00:19:54.515Z,101117.17
2018-02-14T00:22:25.190Z,101111.45
2018-02-14T00:24:54.955Z,101115.45
2018-02-14T00:27:25.512Z,101118.48
2018-02-14T00:29:55.368Z,101123.14
2018-02-14T00:32:25.212Z,101124.83
2018-02-14T00:34:55.760Z,101125.64
2018-02-14T00:37:25.451Z,101120.84
2018-02-14T00:39:56.050Z,101118.75
2018-02-14T00:42:25.848Z,101118.87
2018-02-14T00:44:55.723Z,101116.12
2018-02-14T00:47:25.540Z,101115.27
2018-02-14T00:49:55.466Z,101118.47
2018-02-14T00:52:25.294Z,101120.52
2018-02-14T00:54:55.100Z,101121.64
2018-02-14T00:57:25.017Z,101125.31
2018-02-14T00:59:54.764Z,101124.91
2018-02-14T01:02:25.483Z,101124.13
2018-02-14T01:04:55.225Z,101135.79
2018-02-14T01:07:25.894Z,101133.72
2018-02-14T01:09:55.595Z,101130.58
2018-02-14T01:12:25.647Z,101132.48
2018-02-14T01:14:55.416Z,101126.56
2018-02-14T01:17:25.214Z,101131.30
2018-02-14T01:19:59.839Z,101129.48
2018-02-14T01:22:30.436Z,101128.17
2018-02-14T01:25:00.462Z,101131.02
2018-02-14T01:27:30.171Z,101130.88
2018-02-14T01:30:00.690Z,101141.48
2018-02-14T01:32:30.451Z,101140.55
2018-02-14T01:35:00.159Z,101139.45
2018-02-14T01:37:30.756Z,101141.86
2018-02-14T01:40:00.493Z,101145.92
2018-02-14T01:42:31.040Z,101153.67
2018-02-14T01:45:01.045Z,101156.55
2018-02-14T01:47:31.764Z,101159.02
2018-02-14T01:50:02.271Z,101159.55
2018-02-14T01:52:32.996Z,101166.52
2018-02-14T01:55:02.739Z,101157.42
2018-02-14T01:57:33.240Z,101159.14
2018-02-14T02:00:03.056Z,101164.05
2018-02-14T02:02:32.776Z,101162.89
2018-02-14T02:05:02.763Z,101163.45
2018-02-14T02:07:32.598Z,101169.70
2018-02-14T02:10:02.338Z,101169.39
2018-02-14T02:12:32.816Z,101170.23
2018-02-14T02:15:02.612Z,101168.36
2018-02-14T02:17:32.479Z,101170.79
2018-02-14T02:20:03.072Z,101173.63
2018-02-14T02:22:32.950Z,101176.00
2018-02-14T02:25:02.951Z,101178.07
2018-02-14T02:27:33.629Z,101174.44
2018-02-14T02:30:03.331Z,101176.56
2018-02-14T02:32:33.144Z,101179.04
2018-02-14T02:35:03.016Z,101176.44
2018-02-14T02:37:33.520Z,101178.92
2018-02-14T02:40:47.175Z,101181.52
2018-02-14T02:43:16.974Z,101181.09
2018-02-14T02:45:46.860Z,101182.00
2018-02-14T02:48:16.813Z,101183.68
2018-02-14T02:50:46.577Z,101184.12
2018-02-14T02:53:16.577Z,101183.75
2018-02-14T02:55:46.439Z,101185.13
2018-02-14T02:58:16.205Z,101196.63
2018-02-14T03:00:45.896Z,101195.56
2018-02-14T03:03:16.418Z,101197.18
2018-02-14T03:05:46.996Z,101202.45
2018-02-14T03:08:16.816Z,101195.66
2018-02-14T03:10:46.624Z,101201.34
2018-02-14T03:13:16.606Z,101196.80
2018-02-14T03:15:47.159Z,101193.38
2018-02-14T03:18:16.895Z,101192.78
2018-02-14T03:20:46.781Z,101197.68
2018-02-14T03:23:16.482Z,101197.16
2018-02-14T03:25:46.812Z,101201.40
2018-02-14T03:28:16.679Z,101199.59
2018-02-14T03:30:46.444Z,101195.48
2018-02-14T03:33:16.386Z,101196.56
2018-02-14T03:35:46.495Z,101204.77
2018-02-14T03:38:16.411Z,101207.52
2018-02-14T03:40:46.256Z,101211.28
2018-02-14T03:43:16.243Z,101217.72
2018-02-14T03:45:46.410Z,101211.69
2018-02-14T03:48:17.236Z,101217.89
2018-02-14T03:50:46.996Z,101229.12
2018-02-14T03:53:16.923Z,101226.52
2018-02-14T03:55:46.885Z,101232.12
2018-02-14T03:58:16.701Z,101228.81
2018-02-14T04:00:46.501Z,101229.52
2018-02-14T04:03:17.067Z,101233.70
2018-02-14T04:05:47.011Z,101244.83
2018-02-14T04:08:16.845Z,101251.73
2018-02-14T04:10:46.752Z,101254.77
2018-02-14T04:13:16.472Z,101256.70
2018-02-14T04:15:46.177Z,101261.03
2018-02-14T04:18:16.083Z,101259.02
2018-02-14T04:20:45.880Z,101262.11
2018-02-14T04:23:15.963Z,101266.36
2018-02-14T04:25:46.625Z,101271.20
2018-02-14T04:28:16.376Z,101271.41
2018-02-14T04:30:46.160Z,101273.20
2018-02-14T04:33:16.060Z,101266.45
2018-02-14T04:35:45.920Z,101266.25
2018-02-14T04:38:15.603Z,101268.31
2018-02-14T04:40:45.497Z,101277.31
2018-02-14T04:43:15.498Z,101279.31
2018-02-14T04:45:45.193Z,101283.03
2018-02-14T04:48:15.652Z,101283.31
2018-02-14T04:50:45.346Z,101288.55
2018-02-14T04:53:15.950Z,101290.24
2018-02-14T04:55:47.227Z,101288.45
2018-02-14T04:58:17.160Z,101291.67
2018-02-14T05:00:47.114Z,101291.37
2018-02-14T05:03:16.871Z,101288.55
2018-02-14T05:05:46.557Z,101285.64
2018-02-14T05:08:17.227Z,101288.66
2018-02-14T05:10:46.868Z,101292.29
2018-02-14T05:13:16.987Z,101291.09
2018-02-14T05:15:46.855Z,101287.78
2018-02-14T05:18:16.568Z,101290.20
2018-02-14T05:20:46.268Z,101290.09
2018-02-14T05:23:16.976Z,101292.84
2018-02-14T05:25:46.766Z,101289.20
2018-02-14T05:28:16.906Z,101288.17
2018-02-14T05:30:47.529Z,101291.50
2018-02-14T05:33:17.458Z,101292.29
2018-02-14T05:35:48.252Z,101294.19
2018-02-14T05:38:18.129Z,101300.55
2018-02-14T05:40:48.595Z,101300.45
2018-02-14T05:43:18.297Z,101301.67
2018-02-14T05:45:48.231Z,101305.72
2018-02-14T05:48:17.938Z,101308.14
2018-02-14T05:50:47.890Z,101311.04
2018-02-14T05:55:50.356Z,101310.66
2018-02-14T05:58:20.387Z,101303.52
2018-02-14T06:00:50.119Z,101305.53
2018-02-14T06:03:35.438Z,101306.21
2018-02-14T06:06:05.121Z,101296.25
2018-02-14T06:08:35.806Z,101289.42
2018-02-14T06:11:05.656Z,101297.79
2018-02-14T06:13:36.164Z,101305.02
2018-02-14T06:16:06.265Z,101308.82
2018-02-14T06:18:36.403Z,101306.03
2018-02-14T06:21:06.371Z,101314.22
2018-02-14T06:23:36.332Z,101320.67
2018-02-14T06:26:44.611Z,101323.98
2018-02-14T06:29:14.483Z,101330.14
2018-02-14T06:31:44.363Z,101340.23
2018-02-14T06:34:14.038Z,101350.00
2018-02-14T06:36:44.828Z,101356.34
2018-02-14T06:39:14.710Z,101354.56
2018-02-14T06:41:44.736Z,101366.36
2018-02-14T06:44:14.694Z,101364.54
2018-02-14T06:46:44.829Z,101367.47
2018-02-14T06:49:23.794Z,101362.91
2018-02-14T06:51:53.634Z,101360.71
2018-02-14T06:54:24.253Z,101364.44
2018-02-14T06:56:54.209Z,101361.11
2018-02-14T06:59:24.070Z,101368.66
2018-02-14T07:01:53.752Z,101369.69
2018-02-14T07:04:24.415Z,101359.68
2018-02-14T07:06:54.229Z,101365.42
2018-02-14T07:09:24.034Z,101368.44
2018-02-14T07:11:54.085Z,101371.86
2018-02-14T07:14:23.896Z,101375.41
2018-02-14T07:16:53.778Z,101373.66
2018-02-14T07:19:23.779Z,101373.47
2018-02-14T07:21:54.331Z,101361.75
2018-02-14T07:24:25.020Z,101377.06
2018-02-14T07:26:55.073Z,101387.84
2018-02-14T07:29:24.976Z,101382.20
2018-02-14T07:31:54.913Z,101381.09
2018-02-14T07:34:25.286Z,101386.21
2018-02-14T07:36:55.151Z,101385.70
2018-02-14T07:39:25.132Z,101393.05
2018-02-14T07:41:56.405Z,101395.94
2018-02-14T07:44:27.164Z,101392.70
2018-02-14T07:46:56.944Z,101399.06
2018-02-14T07:49:26.799Z,101400.66
2018-02-14T07:51:56.843Z,101399.13
2018-02-14T07:54:27.064Z,101401.31
2018-02-14T07:56:57.024Z,101399.01
2018-02-14T07:59:27.404Z,101397.97
2018-02-14T08:01:57.151Z,101405.75
2018-02-14T08:04:27.289Z,101407.36
2018-02-14T08:06:57.318Z,101407.31
2018-02-14T08:09:27.812Z,101401.94
2018-02-14T08:11:59.082Z,101401.14
2018-02-14T08:14:30.589Z,101405.09
2018-02-14T08:17:00.381Z,101412.16
2018-02-14T08:19:30.531Z,101421.57
2018-02-14T08:22:01.149Z,101421.06
2018-02-14T08:24:31.284Z,101423.58
2018-02-14T08:27:01.951Z,101427.97
2018-02-14T08:29:31.848Z,101434.89
2018-02-14T08:32:01.728Z,101454.50
2018-02-14T08:34:32.255Z,101447.39
2018-02-14T08:37:02.660Z,101446.23
2018-02-14T08:39:32.485Z,101443.93
2018-02-14T08:42:02.470Z,101441.25
2018-02-14T08:44:32.748Z,101436.21
2018-02-14T08:47:03.392Z,101445.86
2018-02-14T08:49:34.312Z,101437.81
2018-02-14T08:52:04.155Z,101444.29
2018-02-14T08:54:34.229Z,101444.13
2018-02-14T08:57:04.566Z,101443.80
2018-02-14T08:59:34.415Z,101441.70
2018-02-14T09:02:04.288Z,101448.94
2018-02-14T09:04:34.208Z,101455.42
2018-02-14T09:07:04.044Z,101465.69
2018-02-14T09:09:34.704Z,101456.73
2018-02-14T09:12:04.982Z,101460.81
2018-02-14T09:14:35.511Z,101468.13
2018-02-14T09:17:06.044Z,101474.37
2018-02-14T09:19:36.803Z,101469.95
2018-02-14T09:22:06.836Z,101469.88
2018-02-14T09:24:36.555Z,101470.56
2018-02-14T09:27:06.332Z,101470.34
2018-02-14T09:29:37.104Z,101470.80
2018-02-14T09:32:06.990Z,101468.73
2018-02-14T09:34:36.906Z,101478.09
2018-02-14T09:37:07.016Z,101472.80
2018-02-14T09:39:37.778Z,101476.66
2018-02-14T09:42:07.482Z,101461.62
2018-02-14T09:44:37.835Z,101464.67
2018-02-14T09:47:07.947Z,101468.98
2018-02-14T09:49:37.938Z,101462.39
2018-02-14T09:52:07.972Z,101463.16
2018-02-14T09:54:37.785Z,101464.84
2018-02-14T09:57:08.795Z,101472.09
2018-02-14T09:59:38.805Z,101469.05
2018-02-14T10:02:09.564Z,101469.30
2018-02-14T10:04:39.565Z,101464.83
2018-02-14T10:07:10.130Z,101468.83
2018-02-14T10:09:40.029Z,101479.00
2018-02-14T10:12:09.820Z,101466.58
2018-02-14T10:14:40.708Z,101469.27
2018-02-14T10:17:10.737Z,101463.26
2018-02-14T10:19:40.550Z,101466.20
2018-02-14T10:22:10.519Z,101466.05
2018-02-14T10:24:40.321Z,101464.55
2018-02-14T10:27:10.032Z,101467.72
2018-02-14T10:29:39.951Z,101471.63
2018-02-14T10:32:10.024Z,101473.52
2018-02-14T10:34:39.904Z,101471.11
2018-02-14T10:37:09.979Z,101466.95
2018-02-14T10:39:39.797Z,101461.69
2018-02-14T10:42:10.391Z,101464.16
2018-02-14T10:44:40.375Z,101459.56
2018-02-14T10:47:10.208Z,101461.05
2018-02-14T10:49:40.014Z,101467.37
2018-02-14T10:52:09.972Z,101459.75
2018-02-14T10:54:41.457Z,101465.36
2018-02-14T10:57:11.296Z,101460.26
2018-02-14T10:59:41.121Z,101465.19
2018-02-14T11:02:11.140Z,101459.58
2018-02-14T11:04:44.999Z,101461.88
2018-02-14T11:07:19.068Z,101459.46
2018-02-14T11:09:48.785Z,101457.50
2018-02-14T11:12:18.599Z,101458.78
2018-02-14T11:14:49.191Z,101453.95
2018-02-14T11:17:19.031Z,101460.37
2018-02-14T11:19:48.832Z,101457.59
2018-02-14T11:22:18.693Z,101456.80
2018-02-14T11:24:49.532Z,101449.02
2018-02-14T11:27:20.011Z,101450.72
2018-02-14T11:29:49.825Z,101453.47
2018-02-14T11:32:19.588Z,101447.11
2018-02-14T11:34:50.044Z,101443.47
2018-02-14T11:37:19.750Z,101449.03
2018-02-14T11:39:49.708Z,101443.20
2018-02-14T11:42:19.598Z,101441.82
2018-02-14T11:44:50.432Z,101437.19
2018-02-14T11:47:20.484Z,101435.96
2018-02-14T11:49:50.316Z,101444.16
2018-02-14T11:52:20.966Z,101435.19
2018-02-14T11:54:51.531Z,101446.36
2018-02-14T11:57:21.652Z,101442.70
2018-02-14T11:59:51.569Z,101441.14
2018-02-14T12:02:21.540Z,101446.46
2018-02-14T12:04:52.270Z,101445.85
2018-02-14T12:07:22.874Z,101443.81
2018-02-14T12:09:52.671Z,101447.23
2018-02-14T12:12:22.499Z,101439.49
2018-02-14T12:14:52.490Z,101445.02
2018-02-14T12:17:22.379Z,101440.55
2018-02-14T12:19:53.031Z,101419.05
2018-02-14T12:22:22.760Z,101422.28
2018-02-14T12:24:52.642Z,101422.57
2018-02-14T12:27:22.918Z,101422.06
2018-02-14T12:29:54.343Z,101412.97
2018-02-14T12:32:24.094Z,101410.17
2018-02-14T12:34:54.705Z,101405.42
2018-02-14T12:37:24.619Z,101407.27
2018-02-14T12:39:54.866Z,101403.73
2018-02-14T12:42:24.908Z,101405.39
2018-02-14T12:44:55.061Z,101404.03
2018-02-14T12:47:24.823Z,101398.67
2018-02-14T12:49:54.711Z,101404.30
2018-02-14T12:52:24.677Z,101403.13
2018-02-14T12:54:55.679Z,101395.67
2018-02-14T12:57:25.628Z,101389.98
2018-02-14T12:59:55.914Z,101387.28
2018-02-14T13:02:27.271Z,101368.38
2018-02-14T13:04:57.010Z,101371.75
2018-02-14T13:07:26.879Z,101376.54
2018-02-14T13:09:56.711Z,101370.11
2018-02-14T13:12:26.759Z,101386.63
2018-02-14T13:14:56.611Z,101374.78
2018-02-14T13:17:26.808Z,101378.36
2018-02-14T13:19:56.980Z,101379.98
2018-02-14T13:22:26.959Z,101378.02
2018-02-14T13:24:56.960Z,101386.49
2018-02-14T13:27:26.830Z,101375.47
2018-02-14T13:29:56.891Z,101382.20
2018-02-14T13:32:26.605Z,101378.98
2018-02-14T13:34:56.795Z,101380.27
2018-02-14T13:37:27.604Z,101370.93
2018-02-14T13:39:58.827Z,101377.76
2018-02-14T13:42:28.730Z,101366.98
2018-02-14T13:44:58.445Z,101361.73
2018-02-14T13:47:28.188Z,101356.98
2018-02-14T13:49:58.100Z,101349.09
2018-02-14T13:52:28.746Z,101356.98
2018-02-14T13:55:00.379Z,101360.75
2018-02-14T13:57:30.114Z,101360.91
2018-02-14T14:00:00.803Z,101375.23
2018-02-14T14:02:31.047Z,101374.36
2018-02-14T14:05:00.839Z,101373.70
2018-02-14T14:07:30.617Z,101360.91
2018-02-14T14:10:01.096Z,101353.13
2018-02-14T14:12:31.011Z,101343.77
2018-02-14T14:15:00.803Z,101355.30
2018-02-14T14:17:31.874Z,101351.66
2018-02-14T14:20:05.669Z,101352.58
2018-02-14T14:22:38.152Z,101353.73
2018-02-14T14:25:09.501Z,101352.91
2018-02-14T14:27:40.066Z,101345.51
2018-02-14T14:30:11.170Z,101344.62
2018-02-14T14:32:43.700Z,101342.91
2018-02-14T14:35:13.744Z,101349.03
2018-02-14T14:37:43.624Z,101364.23
2018-02-14T14:40:14.314Z,101365.02
2018-02-14T14:42:44.562Z,101360.09
2018-02-14T14:45:14.701Z,101370.44
2018-02-14T14:47:44.544Z,101370.67
2018-02-14T14:50:14.550Z,101378.95
2018-02-14T14:52:44.363Z,101374.98
2018-02-14T14:55:21.115Z,101363.62
2018-02-14T14:57:51.776Z,101366.77
2018-02-14T15:00:22.153Z,101363.25
2018-02-14T15:02:52.367Z,101362.31
2018-02-14T15:05:22.181Z,101365.34
2018-02-14T15:07:51.989Z,101375.20
2018-02-14T15:10:21.868Z,101369.95
2018-02-14T15:12:51.928Z,101374.73
2018-02-14T15:15:22.152Z,101372.31
2018-02-14T15:17:52.001Z,101369.13
2018-02-14T15:20:22.073Z,101362.69
2018-02-14T15:22:52.515Z,101364.80
2018-02-14T15:25:22.257Z,101353.48
2018-02-14T15:27:52.884Z,101349.40
2018-02-14T15:30:23.392Z,101354.14
2018-02-14T15:32:53.421Z,101359.09
2018-02-14T15:35:24.112Z,101361.57
2018-02-14T15:37:54.021Z,101356.45
2018-02-14T15:40:23.803Z,101359.91
2018-02-14T15:42:53.656Z,101364.97
2018-02-14T15:45:23.978Z,101371.56
2018-02-14T15:47:53.808Z,101361.30
2018-02-14T15:50:23.524Z,101365.84
2018-02-14T15:52:53.293Z,101376.08
2018-02-14T15:55:23.549Z,101384.80
2018-02-14T15:57:53.380Z,101386.44
2018-02-14T16:00:23.591Z,101383.31
2018-02-14T16:02:53.415Z,101383.77
2018-02-14T16:05:24.001Z,101379.31
2018-02-14T16:07:54.109Z,101382.08
2018-02-14T16:10:23.896Z,101385.38
2018-02-14T16:12:53.617Z,101382.97
2018-02-14T16:15:24.358Z,101379.24
2018-02-14T16:17:54.388Z,101375.04
2018-02-14T16:20:24.156Z,101370.50
2018-02-14T16:22:53.988Z,101370.24
2018-02-14T16:25:24.813Z,101381.75
2018-02-14T16:27:55.349Z,101381.03
2018-02-14T16:30:25.946Z,101383.63
2018-02-14T16:32:56.369Z,101386.68
2018-02-14T16:35:26.119Z,101381.39
2018-02-14T16:37:56.881Z,101385.43
2018-02-14T16:40:26.881Z,101385.46
2018-02-14T16:42:56.717Z,101388.84
2018-02-14T16:45:26.601Z,101389.90
2018-02-14T16:47:57.105Z,101390.75
2018-02-14T16:50:26.951Z,101402.09
2018-02-14T16:52:56.735Z,101410.09
2018-02-14T16:55:27.304Z,101416.69
2018-02-14T16:57:57.114Z,101412.83
2018-02-14T17:00:26.902Z,101419.84
2018-02-14T17:02:57.570Z,101419.33
2018-02-14T17:05:28.268Z,101426.73
2018-02-14T17:07:58.817Z,101426.50
2018-02-14T17:10:28.561Z,101428.45
2018-02-14T17:12:58.924Z,101428.39
2018-02-14T17:15:28.994Z,101428.02
2018-02-14T17:17:58.790Z,101425.75
2018-02-14T17:20:28.611Z,101424.57
2018-02-14T17:22:58.750Z,101417.48
2018-02-14T17:25:28.640Z,101413.77
2018-02-14T17:27:58.461Z,101409.13
2018-02-14T17:30:28.531Z,101401.88
2018-02-14T17:32:58.344Z,101392.27
2018-02-14T17:35:28.279Z,101388.75
2018-02-14T17:37:58.808Z,101384.02
2018-02-14T17:40:29.363Z,101385.36
2018-02-14T17:42:59.803Z,101388.64
2018-02-14T17:45:29.776Z,101389.00
2018-02-14T17:47:59.595Z,101389.34
2018-02-14T17:50:31.116Z,101393.50
2018-02-14T17:53:01.223Z,101400.41
2018-02-14T17:55:31.843Z,101401.20
2018-02-14T17:58:01.922Z,101402.77
2018-02-14T18:00:32.880Z,101394.61
2018-02-14T18:03:02.797Z,101392.84
2018-02-14T18:05:32.796Z,101388.66
2018-02-14T18:08:02.762Z,101391.34
2018-02-14T18:10:32.769Z,101396.89
2018-02-14T18:13:02.664Z,101391.34
2018-02-14T18:15:33.402Z,101387.05
2018-02-14T18:18:03.395Z,101375.79
2018-02-14T18:20:33.298Z,101373.17
2018-02-14T18:23:04.999Z,101372.53
2018-02-14T18:25:35.562Z,101376.02
2018-02-14T18:28:05.944Z,101374.37
2018-02-14T18:30:35.852Z,101376.02
2018-02-14T18:33:05.997Z,101378.91
2018-02-14T18:35:36.537Z,101380.17
2018-02-14T18:38:06.643Z,101367.48
2018-02-14T18:40:36.464Z,101374.53
2018-02-14T18:43:06.590Z,101379.99
2018-02-14T18:45:36.438Z,101379.94
2018-02-14T18:48:07.539Z,101388.19
2018-02-14T18:50:37.597Z,101379.06
2018-02-14T18:53:08.335Z,101380.89
2018-02-14T18:55:38.285Z,101365.08
2018-02-14T18:58:08.211Z,101350.73
2018-02-14T19:00:38.010Z,101344.14
2018-02-14T19:03:08.104Z,101332.50
2018-02-14T19:05:38.545Z,101322.14
2018-02-14T19:08:09.054Z,101315.77
2018-02-14T19:10:39.750Z,101320.47
2018-02-14T19:13:10.402Z,101318.47
2018-02-14T19:15:40.310Z,101325.86
2018-02-14T19:18:10.245Z,101343.36
2018-02-14T19:20:40.100Z,101323.34
2018-02-14T19:23:10.135Z,101319.88
2018-02-14T19:25:39.930Z,101322.06
2018-02-14T19:28:10.115Z,101322.43
2018-02-14T19:30:39.947Z,101328.48
2018-02-14T19:33:09.888Z,101328.21
2018-02-14T19:35:39.757Z,101322.30
2018-02-14T19:38:11.703Z,101319.02
2018-02-14T19:40:42.544Z,101312.73
2018-02-14T19:43:12.673Z,101312.09
2018-02-14T19:45:44.483Z,101310.16
2018-02-14T19:48:14.692Z,101315.31
2018-02-14T19:50:44.864Z,101326.78
2018-02-14T19:53:15.462Z,101315.81
2018-02-14T19:55:45.603Z,101325.06
2018-02-14T19:58:16.308Z,101319.13
2018-02-14T20:00:47.285Z,101313.08
2018-02-14T20:03:18.032Z,101316.21
2018-02-14T20:05:49.196Z,101306.06
2018-02-14T20:08:20.326Z,101314.09
2018-02-14T20:10:50.403Z,101314.66
2018-02-14T20:13:20.741Z,101306.75
2018-02-14T20:15:50.681Z,101315.03
2018-02-14T20:18:27.793Z,101306.19
2018-02-14T20:20:59.616Z,101305.73
2018-02-14T20:23:30.194Z,101299.19
2018-02-14T20:26:00.092Z,101309.10
2018-02-14T20:28:30.933Z,101306.48
2018-02-14T20:31:00.668Z,101304.81
2018-02-14T20:33:30.779Z,101311.97
2018-02-14T20:36:02.391Z,101296.38
2018-02-14T20:38:32.944Z,101302.02
2018-02-14T20:41:04.673Z,101298.39
2018-02-14T20:43:34.678Z,101294.37
2018-02-14T20:46:04.522Z,101286.62
2018-02-14T20:48:35.532Z,101279.48
2018-02-14T20:51:05.622Z,101266.30
2018-02-14T20:53:35.521Z,101280.11
2018-02-14T20:56:05.505Z,101290.25
2018-02-14T20:58:36.194Z,101284.30
2018-02-14T21:01:06.083Z,101274.82
2018-02-14T21:03:35.818Z,101282.72
2018-02-14T21:06:05.592Z,101272.34
2018-02-14T21:08:36.228Z,101273.69
2018-02-14T21:11:06.925Z,101255.22
2018-02-14T21:13:36.819Z,101249.55
2018-02-14T21:16:06.798Z,101253.84
2018-02-14T21:18:37.500Z,101249.99
2018-02-14T21:21:08.384Z,101253.28
2018-02-14T21:23:38.161Z,101264.11
2018-02-14T21:26:08.851Z,101259.48
2018-02-14T21:28:38.661Z,101253.09
2018-02-14T21:31:08.495Z,101254.55
2018-02-14T21:33:38.273Z,101250.77
2018-02-14T21:36:08.100Z,101238.23
2018-02-14T21:38:37.939Z,101252.77
2018-02-14T21:41:07.833Z,101239.01
2018-02-14T21:43:37.804Z,101253.44
2018-02-14T21:46:08.638Z,101249.11
2018-02-14T21:48:39.177Z,101237.10
2018-02-14T21:51:08.967Z,101222.44
2018-02-14T21:53:39.573Z,101218.41
2018-02-14T21:56:09.511Z,101224.48
2018-02-14T21:58:40.081Z,101216.65
2018-02-14T22:01:10.018Z,101205.77
2018-02-14T22:03:39.763Z,101196.81
2018-02-14T22:06:09.664Z,101194.91
2018-02-14T22:08:39.415Z,101196.88
2018-02-14T22:11:09.576Z,101195.28
2018-02-14T22:13:39.421Z,101184.53
2018-02-14T22:16:09.339Z,101180.58
2018-02-14T22:18:39.232Z,101174.49
2018-02-14T22:21:09.033Z,101162.63
2018-02-14T22:23:39.226Z,101166.65
2018-02-14T22:26:09.056Z,101159.65
2018-02-14T22:28:39.047Z,101158.16
2018-02-14T22:31:08.980Z,101163.71
2018-02-14T22:33:38.651Z,101162.97
2018-02-14T22:36:09.392Z,101154.28
2018-02-14T22:38:40.117Z,101165.23
2018-02-14T22:41:10.833Z,101168.24
2018-02-14T22:43:40.600Z,101172.20
2018-02-14T22:46:10.628Z,101177.70
2018-02-14T22:48:40.647Z,101174.70
2018-02-14T22:51:10.731Z,101182.95
2018-02-14T22:53:41.235Z,101183.22
2018-02-14T22:56:11.856Z,101191.00
2018-02-14T22:58:41.640Z,101188.83
2018-02-14T23:01:11.596Z,101193.67
2018-02-14T23:03:42.207Z,101201.24
2018-02-14T23:06:12.257Z,101194.52
2018-02-14T23:08:42.835Z,101189.61
2018-02-14T23:11:12.658Z,101192.38
2018-02-14T23:13:42.560Z,101183.59
2018-02-14T23:16:12.412Z,101174.02
2018-02-14T23:18:42.317Z,101179.43
2018-02-14T23:21:12.142Z,101172.36
2018-02-14T23:23:42.483Z,101162.96
2018-02-14T23:26:13.000Z,101144.12
2018-02-14T23:28:43.641Z,101114.09
2018-02-14T23:31:14.205Z,101126.30
2018-02-14T23:33:44.026Z,101124.89
2018-02-14T23:36:13.940Z,101118.23
2018-02-14T23:38:43.697Z,101111.70
2018-02-14T23:41:14.283Z,101103.05
2018-02-14T23:43:44.164Z,101102.34
2018-02-14T23:46:14.828Z,101113.83
2018-02-14T23:48:44.652Z,101100.44
2018-02-14T23:51:14.385Z,101102.56
2018-02-14T23:53:44.321Z,101103.38
2018-02-14T23:56:14.055Z,101111.39
2018-02-14T23:58:44.069Z,101100.23
